Time;durP1;ratioP1;P1;durP2;ratioP2;P2;SDS_P1;SDS_P2;PMS_P1;PMS_P2;Temp;Humidity;BMP_temperature;BMP_pressure;BME280_temperature;BME280_humidity;BME280_pressure;Samples;Min_cycle;Max_cycle;Signal;HPM_P1;HPM_P2
2023/12/27 00:00:42;;;;;;;4.93;2.57;;;7.80;1.00;;;;;;5119291;28;20248;-43
2023/12/27 00:03:07;;;;;;;4.77;2.10;;;7.80;1.00;;;;;;5118633;28;20203;-45
2023/12/27 00:05:33;;;;;;;5.20;2.57;;;7.80;1.00;;;;;;5118742;28;20271;-42
2023/12/27 00:07:58;;;;;;;3.50;2.13;;;7.80;1.00;;;;;;5117863;28;20615;-44
2023/12/27 00:10:24;;;;;;;7.50;2.30;;;7.80;1.00;;;;;;5118433;28;20316;-43
2023/12/27 00:12:49;;;;;;;4.07;1.70;;;7.80;1.00;;;;;;5119421;28;20546;-41
2023/12/27 00:15:15;;;;;;;2.97;2.00;;;7.80;1.00;;;;;;5118614;28;20445;-43
2023/12/27 00:17:40;;;;;;;3.20;1.97;;;7.80;1.00;;;;;;5119690;28;20183;-42
2023/12/27 00:20:08;;;;;;;6.13;2.23;;;7.90;1.00;;;;;;5101908;28;20175;-43
2023/12/27 00:22:34;;;;;;;4.70;2.13;;;7.90;1.00;;;;;;5119303;28;20188;-41
2023/12/27 00:24:59;;;;;;;2.83;2.10;;;7.90;1.00;;;;;;5118920;28;20433;-43
2023/12/27 00:27:25;;;;;;;3.57;1.90;;;7.90;1.00;;;;;;5118261;28;20207;-43
2023/12/27 00:29:51;;;;;;;4.83;2.10;;;7.90;1.00;;;;;;5118223;28;20172;-42
2023/12/27 00:32:17;;;;;;;3.10;2.10;;;7.90;1.00;;;;;;5118310;28;20167;-45
2023/12/27 00:34:43;;;;;;;2.27;1.70;;;7.90;1.00;;;;;;5118541;28;20298;-42
2023/12/27 00:37:09;;;;;;;2.77;2.10;;;7.90;1.00;;;;;;5118743;28;20457;-44
2023/12/27 00:39:35;;;;;;;3.93;2.13;;;7.90;1.00;;;;;;5119119;28;20180;-41
2023/12/27 00:42:00;;;;;;;3.33;1.80;;;7.90;1.00;;;;;;5119327;28;20806;-42
2023/12/27 00:44:26;;;;;;;3.80;1.60;;;7.90;1.00;;;;;;5118583;28;20172;-44
2023/12/27 00:46:51;;;;;;;5.20;1.97;;;7.90;1.00;;;;;;5117493;28;20215;-44
2023/12/27 00:49:17;;;;;;;4.60;1.57;;;7.90;1.00;;;;;;5116584;28;20190;-42
2023/12/27 00:51:44;;;;;;;4.10;2.40;;;7.90;1.00;;;;;;5115935;28;20183;-42
2023/12/27 00:54:09;;;;;;;3.00;2.10;;;7.90;1.00;;;;;;5114868;28;20180;-45
2023/12/27 00:56:35;;;;;;;3.93;2.30;;;7.90;1.00;;;;;;5115513;28;20421;-45
2023/12/27 00:59:01;;;;;;;6.17;2.10;;;7.90;1.00;;;;;;5115675;28;20182;-42
2023/12/27 01:01:29;;;;;;;2.70;1.73;;;7.90;1.00;;;;;;5116793;28;20184;-50
2023/12/27 01:03:55;;;;;;;3.13;2.03;;;7.90;1.00;;;;;;5118638;27;20846;-42
2023/12/27 01:06:21;;;;;;;3.57;2.20;;;7.90;1.00;;;;;;5116157;28;20542;-40
2023/12/27 01:08:47;;;;;;;2.47;2.00;;;7.90;1.00;;;;;;5115786;28;20186;-44
2023/12/27 01:11:12;;;;;;;3.90;2.47;;;7.90;1.00;;;;;;5117203;28;20704;-42
2023/12/27 01:13:38;;;;;;;7.30;2.60;;;8.00;1.00;;;;;;5115944;28;20433;-43
2023/12/27 01:16:04;;;;;;;3.07;1.70;;;8.00;1.00;;;;;;5114842;28;20180;-44
2023/12/27 01:18:29;;;;;;;6.20;2.10;;;8.00;1.00;;;;;;5117201;28;20300;-44
2023/12/27 01:20:55;;;;;;;3.83;1.97;;;8.00;1.00;;;;;;5116673;28;20221;-43
2023/12/27 01:23:20;;;;;;;2.30;2.10;;;8.00;1.00;;;;;;5118055;28;20206;-41
2023/12/27 01:25:46;;;;;;;2.00;1.60;;;8.00;1.00;;;;;;5118678;28;20426;-43
2023/12/27 01:28:11;;;;;;;3.87;1.80;;;8.00;1.00;;;;;;5117712;28;20283;-41
2023/12/27 01:30:37;;;;;;;5.00;1.77;;;8.00;1.00;;;;;;5117407;28;20184;-43
2023/12/27 01:33:03;;;;;;;3.40;1.70;;;8.00;1.00;;;;;;5117574;28;20191;-42
2023/12/27 01:35:28;;;;;;;3.83;2.10;;;8.00;1.00;;;;;;5117224;28;20199;-46
2023/12/27 01:37:53;;;;;;;3.53;1.73;;;8.00;1.00;;;;;;5117151;28;20191;-42
2023/12/27 01:40:19;;;;;;;2.43;1.60;;;8.00;1.00;;;;;;5116038;28;20184;-42
2023/12/27 01:42:45;;;;;;;3.23;2.10;;;8.00;1.00;;;;;;5115636;28;20577;-46
2023/12/27 01:45:10;;;;;;;3.00;1.77;;;8.00;1.00;;;;;;5113991;28;20561;-42
2023/12/27 01:47:37;;;;;;;2.93;1.93;;;8.10;1.00;;;;;;5115673;28;20234;-44
2023/12/27 01:50:04;;;;;;;6.10;2.10;;;8.10;1.00;;;;;;5117183;28;20288;-41
2023/12/27 01:52:30;;;;;;;3.87;2.10;;;8.10;1.00;;;;;;5117311;28;20430;-42
2023/12/27 01:54:56;;;;;;;2.17;1.83;;;8.00;1.00;;;;;;5117205;28;20874;-41
2023/12/27 01:57:22;;;;;;;2.20;2.00;;;8.00;1.00;;;;;;5117879;28;20441;-43
2023/12/27 01:59:47;;;;;;;5.87;2.20;;;8.00;1.00;;;;;;5116002;28;20280;-40
2023/12/27 02:02:16;;;;;;;4.73;2.10;;;8.00;1.00;;;;;;5117035;28;20214;-40
2023/12/27 02:04:42;;;;;;;2.10;1.90;;;8.00;1.00;;;;;;5116739;28;20505;-41
2023/12/27 02:07:07;;;;;;;3.30;1.90;;;8.00;1.00;;;;;;5116965;28;20473;-42
2023/12/27 02:09:33;;;;;;;3.00;2.27;;;8.00;1.00;;;;;;5117601;28;20331;-44
2023/12/27 02:11:59;;;;;;;2.90;2.13;;;7.90;1.00;;;;;;5117062;28;20552;-41
2023/12/27 02:14:25;;;;;;;2.10;1.67;;;7.90;1.00;;;;;;5117198;28;20178;-41
2023/12/27 02:16:51;;;;;;;3.13;1.90;;;7.80;1.00;;;;;;5117396;28;20465;-42
2023/12/27 02:19:20;;;;;;;2.30;1.83;;;7.80;1.00;;;;;;5116694;28;20613;-43
2023/12/27 02:21:48;;;;;;;4.17;2.83;;;7.80;1.00;;;;;;5115366;28;20188;-41
2023/12/27 02:24:15;;;;;;;3.37;2.10;;;7.80;1.90;;;;;;5116094;28;21017;-42
2023/12/27 02:26:41;;;;;;;3.43;2.50;;;7.80;7.30;;;;;;5115926;28;20567;-42
2023/12/27 02:29:07;;;;;;;2.77;1.80;;;7.80;15.50;;;;;;5116545;28;20500;-44
2023/12/27 02:31:32;;;;;;;4.00;2.00;;;7.80;8.50;;;;;;5117238;28;20262;-42
2023/12/27 02:33:58;;;;;;;4.50;2.40;;;7.80;9.20;;;;;;5116638;28;20183;-44
2023/12/27 02:36:24;;;;;;;3.30;2.70;;;7.90;1.00;;;;;;5116089;28;20248;-42
2023/12/27 02:38:50;;;;;;;3.70;2.50;;;7.80;1.00;;;;;;5114417;28;20413;-41
2023/12/27 02:41:15;;;;;;;4.10;2.30;;;7.80;1.00;;;;;;5114025;28;20241;-45
2023/12/27 02:43:41;;;;;;;3.80;2.00;;;7.80;1.00;;;;;;5115266;28;20222;-43
2023/12/27 02:46:06;;;;;;;3.00;1.90;;;7.80;1.00;;;;;;5115450;28;20271;-41
2023/12/27 02:48:32;;;;;;;2.53;1.77;;;7.80;1.00;;;;;;5116522;28;20184;-43
2023/12/27 02:50:57;;;;;;;2.00;1.70;;;7.80;1.00;;;;;;5116233;28;20310;-44
2023/12/27 02:53:23;;;;;;;2.70;2.00;;;7.70;1.00;;;;;;5116272;28;20172;-41
2023/12/27 02:55:49;;;;;;;2.93;2.20;;;7.70;1.00;;;;;;5116825;28;20202;-42
2023/12/27 02:58:14;;;;;;;3.80;2.50;;;7.70;1.00;;;;;;5116916;28;20445;-42
2023/12/27 03:00:41;;;;;;;3.53;3.20;;;7.70;1.00;;;;;;5116716;28;20188;-41
2023/12/27 03:03:07;;;;;;;3.23;2.40;;;7.70;3.50;;;;;;5116898;28;20176;-45
2023/12/27 03:05:32;;;;;;;5.50;2.20;;;7.60;15.20;;;;;;5117014;28;20842;-43
2023/12/27 03:07:58;;;;;;;2.87;2.53;;;7.60;21.40;;;;;;5116494;28;20479;-42
2023/12/27 03:10:24;;;;;;;3.40;2.27;;;7.60;33.00;;;;;;5116186;28;20267;-41
2023/12/27 03:12:49;;;;;;;2.43;2.03;;;7.60;48.10;;;;;;5115496;28;20453;-44
2023/12/27 03:15:15;;;;;;;3.60;2.00;;;7.60;48.10;;;;;;5116516;28;20187;-42
2023/12/27 03:17:40;;;;;;;3.10;2.03;;;7.70;73.70;;;;;;5119417;28;20244;-41
2023/12/27 03:20:06;;;;;;;3.47;2.17;;;7.60;63.20;;;;;;5120221;28;20241;-43
2023/12/27 03:22:32;;;;;;;1.60;1.50;;;7.60;64.00;;;;;;5120104;28;20188;-42
2023/12/27 03:24:57;;;;;;;2.23;1.57;;;7.70;72.80;;;;;;5120432;28;20520;-45
2023/12/27 03:27:23;;;;;;;3.90;2.07;;;7.70;92.50;;;;;;5119858;28;20218;-43
2023/12/27 03:29:49;;;;;;;3.23;1.97;;;7.70;81.40;;;;;;5120055;28;20202;-42
2023/12/27 03:32:14;;;;;;;2.53;1.97;;;7.70;60.80;;;;;;5120413;28;20167;-43
2023/12/27 03:34:40;;;;;;;3.00;2.00;;;7.70;65.70;;;;;;5120030;28;20944;-44
2023/12/27 03:37:06;;;;;;;1.90;1.70;;;7.70;56.30;;;;;;5119827;28;20347;-42
2023/12/27 03:39:31;;;;;;;2.00;1.63;;;7.70;53.90;;;;;;5120082;28;20235;-40
2023/12/27 03:41:57;;;;;;;3.87;1.80;;;7.70;48.20;;;;;;5119745;28;20211;-42
2023/12/27 03:44:22;;;;;;;2.73;1.73;;;7.70;63.40;;;;;;5119643;28;20517;-43
2023/12/27 03:46:48;;;;;;;2.43;1.70;;;7.70;93.80;;;;;;5119550;28;20600;-41
2023/12/27 03:49:13;;;;;;;3.60;1.57;;;7.70;98.40;;;;;;5119758;28;20565;-42
2023/12/27 03:51:39;;;;;;;3.90;1.97;;;7.70;99.90;;;;;;5120250;28;20506;-43
2023/12/27 03:54:04;;;;;;;4.83;1.80;;;7.70;99.90;;;;;;5119660;28;20179;-41
2023/12/27 03:56:30;;;;;;;2.73;1.67;;;7.70;99.90;;;;;;5120424;28;20620;-42
2023/12/27 03:58:55;;;;;;;3.00;1.80;;;7.70;99.90;;;;;;5119073;28;20267;-43
2023/12/27 04:01:21;;;;;;;2.43;1.67;;;7.70;99.90;;;;;;5119626;28;20248;-45
2023/12/27 04:03:48;;;;;;;2.10;1.50;;;7.70;99.90;;;;;;5119137;28;20274;-41
2023/12/27 04:06:18;;;;;;;2.37;1.70;;;7.70;68.30;;;;;;5119568;28;20267;-43
2023/12/27 04:08:44;;;;;;;5.63;2.33;;;7.70;79.20;;;;;;5119625;28;20413;-50
2023/12/27 04:11:09;;;;;;;5.80;2.00;;;7.70;99.90;;;;;;5119110;28;20405;-42
2023/12/27 04:13:35;;;;;;;2.37;1.73;;;7.70;99.90;;;;;;5118377;28;20418;-42
2023/12/27 04:16:00;;;;;;;2.63;1.90;;;7.70;99.90;;;;;;5118941;28;20469;-42
2023/12/27 04:18:26;;;;;;;2.00;1.40;;;7.70;99.90;;;;;;5119127;28;20183;-43
2023/12/27 04:20:51;;;;;;;1.50;1.40;;;7.70;99.90;;;;;;5118079;28;20182;-44
2023/12/27 04:23:17;;;;;;;5.10;1.80;;;7.70;99.90;;;;;;5117211;28;20179;-45
2023/12/27 04:25:43;;;;;;;3.00;2.20;;;7.70;99.90;;;;;;5117155;28;20180;-40
2023/12/27 04:28:08;;;;;;;3.27;1.90;;;7.70;99.90;;;;;;5117089;28;20199;-41
2023/12/27 04:30:34;;;;;;;3.80;1.60;;;7.70;99.90;;;;;;5118297;28;20440;-42
2023/12/27 04:32:59;;;;;;;2.10;1.40;;;7.70;99.90;;;;;;5116661;28;20195;-42
2023/12/27 04:35:25;;;;;;;3.20;1.83;;;7.70;99.90;;;;;;5117395;28;20176;-43
2023/12/27 04:37:50;;;;;;;2.30;1.47;;;7.70;99.90;;;;;;5118301;28;20258;-43
2023/12/27 04:40:16;;;;;;;3.77;2.30;;;7.70;99.90;;;;;;5117807;28;20275;-44
2023/12/27 04:42:41;;;;;;;1.60;1.50;;;7.70;98.10;;;;;;5117504;28;20255;-44
2023/12/27 04:45:07;;;;;;;2.30;2.10;;;7.60;93.50;;;;;;5116825;28;20175;-42
2023/12/27 04:47:33;;;;;;;2.60;2.03;;;7.60;76.70;;;;;;5116038;28;20269;-43
2023/12/27 04:49:58;;;;;;;3.90;2.20;;;7.50;72.00;;;;;;5116057;28;20777;-44
2023/12/27 04:52:24;;;;;;;3.00;1.90;;;7.50;99.90;;;;;;5114277;28;20190;-42
2023/12/27 04:54:49;;;;;;;2.80;1.67;;;7.40;99.90;;;;;;5115589;28;20167;-44
2023/12/27 04:57:15;;;;;;;3.83;2.07;;;7.40;99.90;;;;;;5115706;28;20187;-41
2023/12/27 04:59:40;;;;;;;2.90;2.20;;;7.30;99.90;;;;;;5116222;28;20187;-45
2023/12/27 05:02:06;;;;;;;2.87;1.97;;;7.30;99.90;;;;;;5117519;28;20254;-42
2023/12/27 05:04:32;;;;;;;4.70;2.07;;;7.20;99.90;;;;;;5118862;28;20271;-45
2023/12/27 05:06:57;;;;;;;2.33;2.03;;;7.10;99.90;;;;;;5117013;28;20230;-42
2023/12/27 05:09:23;;;;;;;3.70;2.00;;;7.10;99.90;;;;;;5118353;28;20179;-43
2023/12/27 05:11:49;;;;;;;3.60;1.80;;;7.00;99.90;;;;;;5118022;28;20168;-42
2023/12/27 05:14:16;;;;;;;2.90;1.80;;;6.90;99.90;;;;;;5115132;28;20842;-42
2023/12/27 05:16:41;;;;;;;3.87;2.37;;;6.90;99.90;;;;;;5115726;28;20180;-43
2023/12/27 05:19:07;;;;;;;4.00;2.10;;;6.80;99.90;;;;;;5117148;28;20429;-41
2023/12/27 05:21:32;;;;;;;2.63;2.20;;;6.80;99.90;;;;;;5117489;28;20320;-44
2023/12/27 05:23:58;;;;;;;3.03;2.27;;;6.70;99.90;;;;;;5116821;28;20207;-44
2023/12/27 05:26:24;;;;;;;2.30;2.10;;;6.70;99.90;;;;;;5117228;28;20246;-46
2023/12/27 05:28:49;;;;;;;3.23;2.43;;;6.60;99.90;;;;;;5116653;28;20184;-44
2023/12/27 05:31:15;;;;;;;3.10;2.03;;;6.60;99.90;;;;;;5116208;28;20176;-41
2023/12/27 05:33:40;;;;;;;3.73;2.50;;;6.60;99.90;;;;;;5113382;28;20581;-45
2023/12/27 05:36:06;;;;;;;2.87;2.60;;;6.50;99.90;;;;;;5112707;28;20653;-41
2023/12/27 05:38:32;;;;;;;3.83;2.70;;;6.50;99.90;;;;;;5114095;28;20199;-42
2023/12/27 05:40:58;;;;;;;3.23;2.50;;;6.50;99.90;;;;;;5113690;28;20280;-46
2023/12/27 05:43:23;;;;;;;7.00;2.53;;;6.40;99.90;;;;;;5113065;28;20862;-42
2023/12/27 05:45:49;;;;;;;4.33;3.40;;;6.40;99.90;;;;;;5110664;28;20179;-41
2023/12/27 05:48:14;;;;;;;3.90;2.40;;;6.40;99.90;;;;;;5111015;28;20211;-43
2023/12/27 05:50:40;;;;;;;5.07;2.43;;;6.40;99.90;;;;;;5110996;28;20216;-41
2023/12/27 05:53:05;;;;;;;8.20;1.80;;;6.40;99.90;;;;;;5112452;28;20433;-45
2023/12/27 05:55:31;;;;;;;5.20;2.60;;;7.40;1.00;;;;;;5112738;28;20190;-46
2023/12/27 05:57:56;;;;;;;11.87;3.17;;;8.80;1.00;;;;;;5111737;28;20176;-42
2023/12/27 06:00:23;;;;;;;6.13;2.47;;;9.80;1.00;;;;;;5112361;28;20172;-42
2023/12/27 06:02:49;;;;;;;3.90;3.10;;;9.80;1.00;;;;;;5114288;28;20592;-43
2023/12/27 06:05:15;;;;;;;3.73;2.70;;;9.40;1.00;;;;;;5113140;28;20444;-44
2023/12/27 06:07:40;;;;;;;4.10;2.73;;;8.90;1.00;;;;;;5112705;28;20497;-47
2023/12/27 06:10:06;;;;;;;3.20;2.47;;;8.30;1.00;;;;;;5113501;28;20244;-42
2023/12/27 06:12:32;;;;;;;3.60;2.37;;;7.90;1.00;;;;;;5112823;28;20278;-45
2023/12/27 06:14:59;;;;;;;2.50;2.23;;;7.70;1.00;;;;;;5113131;28;20457;-41
2023/12/27 06:17:24;;;;;;;5.90;2.70;;;7.40;1.00;;;;;;5112400;28;20179;-42
2023/12/27 06:19:50;;;;;;;3.17;2.20;;;7.20;99.90;;;;;;5112135;28;20728;-43
2023/12/27 06:22:16;;;;;;;2.93;2.00;;;7.00;99.90;;;;;;5111401;28;20191;-45
2023/12/27 06:24:41;;;;;;;4.47;2.00;;;6.90;99.90;;;;;;5112320;28;20270;-45
2023/12/27 06:27:07;;;;;;;4.33;3.70;;;6.80;99.90;;;;;;5112728;28;20477;-44
2023/12/27 06:29:33;;;;;;;4.80;2.63;;;6.70;93.70;;;;;;5111293;28;20163;-45
2023/12/27 06:31:59;;;;;;;5.30;2.70;;;6.60;56.20;;;;;;5111480;28;20592;-44
2023/12/27 06:34:24;;;;;;;3.97;2.40;;;6.50;52.50;;;;;;5112226;28;20422;-42
2023/12/27 06:36:51;;;;;;;4.73;2.63;;;6.50;34.70;;;;;;5112303;28;20194;-42
2023/12/27 06:39:16;;;;;;;3.03;2.60;;;6.40;34.40;;;;;;5112517;28;20489;-42
2023/12/27 06:41:42;;;;;;;3.13;2.43;;;6.30;55.90;;;;;;5112693;28;20418;-42
2023/12/27 06:44:08;;;;;;;4.90;2.73;;;6.30;81.10;;;;;;5113903;28;20198;-45
2023/12/27 06:46:33;;;;;;;6.00;2.50;;;6.20;94.50;;;;;;5115351;28;20219;-42
2023/12/27 06:48:59;;;;;;;5.50;2.90;;;6.20;99.90;;;;;;5117003;28;20171;-47
2023/12/27 06:51:24;;;;;;;6.67;3.03;;;6.10;99.90;;;;;;5118510;28;20314;-42
2023/12/27 06:53:50;;;;;;;4.30;2.80;;;6.10;99.90;;;;;;5120210;28;20262;-42
2023/12/27 06:56:16;;;;;;;5.20;2.40;;;6.10;99.90;;;;;;5119485;28;20182;-44
2023/12/27 06:58:41;;;;;;;6.03;3.20;;;6.00;99.90;;;;;;5118334;28;20179;-44
2023/12/27 07:01:07;;;;;;;4.37;2.87;;;6.00;99.90;;;;;;5119479;28;20884;-42
2023/12/27 07:03:33;;;;;;;6.20;3.43;;;6.00;99.90;;;;;;5118690;28;20204;-41
2023/12/27 07:05:59;;;;;;;3.50;2.70;;;5.90;99.90;;;;;;5114053;28;20176;-42
2023/12/27 07:08:24;;;;;;;4.70;3.43;;;5.90;99.90;;;;;;5116215;28;20482;-45
2023/12/27 07:10:50;;;;;;;6.17;3.50;;;5.90;99.90;;;;;;5116199;28;20184;-40
2023/12/27 07:13:15;;;;;;;4.67;3.20;;;5.90;99.90;;;;;;5115651;28;20175;-45
2023/12/27 07:15:41;;;;;;;8.83;4.03;;;5.90;99.90;;;;;;5117265;28;20180;-42
2023/12/27 07:18:07;;;;;;;5.53;2.80;;;5.80;99.90;;;;;;5116613;28;20540;-43
2023/12/27 07:20:33;;;;;;;4.50;3.00;;;5.90;99.90;;;;;;5117119;28;20584;-44
2023/12/27 07:22:58;;;;;;;5.07;2.80;;;5.80;99.90;;;;;;5118393;28;20183;-43
2023/12/27 07:25:25;;;;;;;4.80;3.30;;;5.80;99.90;;;;;;5117144;28;20206;-44
2023/12/27 07:27:50;;;;;;;3.40;2.60;;;5.80;99.90;;;;;;5116618;28;20556;-42
2023/12/27 07:30:16;;;;;;;5.10;3.03;;;5.80;99.90;;;;;;5117322;28;20532;-41
2023/12/27 07:32:42;;;;;;;5.37;3.13;;;5.80;99.90;;;;;;5113960;28;20195;-42
2023/12/27 07:35:08;;;;;;;4.07;3.03;;;5.80;99.90;;;;;;5114660;28;20167;-41
2023/12/27 07:37:34;;;;;;;4.13;3.73;;;5.90;99.90;;;;;;5116539;28;20445;-41
2023/12/27 07:39:59;;;;;;;4.93;2.80;;;5.90;99.90;;;;;;5117469;28;20429;-42
2023/12/27 07:42:25;;;;;;;3.00;2.50;;;5.90;99.90;;;;;;5118080;28;20451;-42
2023/12/27 07:44:51;;;;;;;4.13;3.47;;;6.00;99.90;;;;;;5117727;28;20176;-42
2023/12/27 07:47:16;;;;;;;6.40;3.00;;;6.00;99.90;;;;;;5117013;28;20237;-43
2023/12/27 07:49:42;;;;;;;5.40;3.00;;;6.00;99.90;;;;;;5116507;28;20233;-44
2023/12/27 07:52:08;;;;;;;3.80;3.50;;;6.10;99.90;;;;;;5116123;28;20433;-44
2023/12/27 07:54:36;;;;;;;4.83;3.20;;;6.10;99.90;;;;;;5116567;28;20211;-41
2023/12/27 07:57:01;;;;;;;4.20;3.77;;;6.20;99.90;;;;;;5116993;28;20454;-45
2023/12/27 07:59:27;;;;;;;4.60;4.13;;;6.20;99.90;;;;;;5117074;28;20405;-44
2023/12/27 08:01:53;;;;;;;5.10;3.93;;;6.30;99.90;;;;;;5117823;28;20184;-42
2023/12/27 08:04:19;;;;;;;7.03;3.93;;;6.40;99.90;;;;;;5119228;28;20177;-45
2023/12/27 08:06:46;;;;;;;5.00;4.50;;;6.40;99.90;;;;;;5117980;28;20199;-42
2023/12/27 08:09:12;;;;;;;9.70;5.30;;;6.40;99.90;;;;;;5117827;28;20490;-42
2023/12/27 08:11:38;;;;;;;4.80;3.97;;;6.50;99.90;;;;;;5117171;28;20683;-42
2023/12/27 08:14:03;;;;;;;6.07;4.70;;;6.50;99.90;;;;;;5117151;28;20421;-45
2023/12/27 08:16:29;;;;;;;6.40;4.47;;;6.60;98.00;;;;;;5117872;28;20511;-46
2023/12/27 08:18:54;;;;;;;6.80;5.23;;;6.70;91.00;;;;;;5115969;28;20575;-42
2023/12/27 08:21:20;;;;;;;9.83;7.40;;;6.70;47.50;;;;;;5116377;28;20206;-43
2023/12/27 08:23:46;;;;;;;6.50;5.40;;;6.80;4.30;;;;;;5115651;28;20172;-42
2023/12/27 08:26:11;;;;;;;6.03;5.20;;;6.80;1.00;;;;;;5116545;28;20168;-42
2023/12/27 08:28:37;;;;;;;6.40;4.80;;;6.80;1.00;;;;;;5115567;28;20569;-41
2023/12/27 08:31:06;;;;;;;5.83;4.50;;;6.90;1.00;;;;;;5115651;28;20176;-44
2023/12/27 08:33:35;;;;;;;5.70;4.20;;;7.00;1.00;;;;;;5099806;28;20600;-45
2023/12/27 08:36:01;;;;;;;6.17;5.03;;;7.10;1.00;;;;;;5115587;27;20776;-44
2023/12/27 08:38:26;;;;;;;5.13;4.63;;;7.20;1.00;;;;;;5117179;28;20417;-42
2023/12/27 08:40:52;;;;;;;4.70;4.07;;;7.30;1.00;;;;;;5117422;28;20728;-43
2023/12/27 08:43:21;;;;;;;7.17;4.43;;;7.40;99.90;;;;;;5115086;28;20222;-44
2023/12/27 08:45:47;;;;;;;10.03;7.83;;;7.50;99.90;;;;;;5114934;28;20196;-43
2023/12/27 08:48:12;;;;;;;10.03;7.90;;;7.50;99.90;;;;;;5114220;28;20886;-43
2023/12/27 08:50:40;;;;;;;13.33;7.63;;;7.70;99.90;;;;;;5114947;28;20482;-43
2023/12/27 08:53:06;;;;;;;8.13;5.40;;;7.80;99.90;;;;;;5115836;28;20478;-46
2023/12/27 08:55:32;;;;;;;5.60;5.10;;;8.10;99.90;;;;;;5113587;28;20425;-43
2023/12/27 08:57:57;;;;;;;6.57;4.40;;;8.40;1.00;;;;;;5115844;28;20461;-44
2023/12/27 09:00:23;;;;;;;5.70;5.10;;;8.60;83.80;;;;;;5114774;28;20229;-42
2023/12/27 09:02:48;;;;;;;3.53;2.90;;;8.60;1.00;;;;;;5114858;28;20195;-44
2023/12/27 09:05:14;;;;;;;4.10;3.23;;;8.60;1.00;;;;;;5115751;28;20238;-45
2023/12/27 09:07:40;;;;;;;3.40;3.00;;;8.80;47.90;;;;;;5114774;28;20207;-44
2023/12/27 09:10:05;;;;;;;3.83;3.03;;;9.40;1.00;;;;;;5114770;28;20176;-42
2023/12/27 09:12:32;;;;;;;3.90;2.83;;;9.90;99.90;;;;;;5114232;28;20299;-42
2023/12/27 09:14:58;;;;;;;3.90;3.10;;;10.60;1.00;;;;;;5114150;28;20528;-42
2023/12/27 09:17:23;;;;;;;7.73;3.50;;;11.30;99.90;;;;;;5114938;28;20266;-45
2023/12/27 09:19:49;;;;;;;5.90;3.10;;;11.90;99.90;;;;;;5114008;28;20453;-42
2023/12/27 09:22:15;;;;;;;3.80;3.03;;;12.20;44.80;;;;;;5115724;28;20743;-46
2023/12/27 09:24:43;;;;;;;5.83;3.20;;;12.50;18.30;;;;;;5112913;28;20437;-43
2023/12/27 09:27:17;;;;;;;4.40;3.77;;;13.00;9.40;;;;;;5111630;28;20700;-43
2023/12/27 09:29:43;;;;;;;3.97;2.60;;;13.80;1.00;;;;;;5111704;28;20684;-44
2023/12/27 09:32:09;;;;;;;4.40;3.43;;;14.50;1.00;;;;;;5112740;28;20823;-42
2023/12/27 09:34:34;;;;;;;5.37;3.77;;;14.80;1.00;;;;;;5111965;28;20463;-47
2023/12/27 09:37:00;;;;;;;26.13;9.93;;;14.70;1.00;;;;;;5113035;28;20180;-45
2023/12/27 09:39:26;;;;;;;12.63;6.70;;;15.80;99.90;;;;;;5116200;28;20190;-49
2023/12/27 09:41:51;;;;;;;6.17;3.27;;;16.90;99.90;;;;;;5116328;28;20508;-45
2023/12/27 09:44:20;;;;;;;6.53;4.03;;;18.00;1.00;;;;;;5116603;28;20258;-48
2023/12/27 09:46:46;;;;;;;3.60;2.87;;;18.80;1.00;;;;;;5114827;28;20239;-46
2023/12/27 09:49:12;;;;;;;4.20;3.23;;;19.00;1.00;;;;;;5115905;28;20461;-48
2023/12/27 09:51:39;;;;;;;4.23;2.83;;;19.10;1.00;;;;;;5116546;28;20604;-45
2023/12/27 09:54:05;;;;;;;5.30;2.70;;;18.40;1.00;;;;;;5113980;28;20422;-48
2023/12/27 09:56:31;;;;;;;3.53;2.43;;;18.60;1.00;;;;;;5114524;28;20420;-48
2023/12/27 09:58:59;;;;;;;4.50;2.60;;;18.10;1.00;;;;;;5113545;28;20324;-45
2023/12/27 10:01:25;;;;;;;4.13;2.43;;;18.40;1.00;;;;;;5111687;28;20433;-42
2023/12/27 10:04:08;;;;;;;4.37;2.67;;;19.10;1.00;;;;;;5113274;28;20441;-43
2023/12/27 10:06:44;;;;;;;3.93;2.77;;;19.80;1.00;;;;;;5091204;28;20525;-42
2023/12/27 10:09:13;;;;;;;3.00;2.47;;;20.30;1.00;;;;;;5090894;28;20426;-43
2023/12/27 10:11:41;;;;;;;3.17;2.43;;;20.60;1.00;;;;;;5091210;28;20442;-45
2023/12/27 10:14:08;;;;;;;4.27;2.60;;;20.90;1.00;;;;;;5093183;28;20501;-42
2023/12/27 10:16:35;;;;;;;4.03;3.07;;;21.10;1.00;;;;;;5093979;28;20434;-46
2023/12/27 10:19:04;;;;;;;3.53;2.37;;;20.30;1.00;;;;;;5094904;28;20809;-42
2023/12/27 10:21:52;;;;;;;2.90;2.40;;;19.40;1.00;;;;;;5094603;28;20422;-43
2023/12/27 10:24:17;;;;;;;4.57;2.70;;;17.20;1.00;;;;;;5095569;28;20460;-42
2023/12/27 10:26:43;;;;;;;3.17;2.30;;;15.60;1.00;;;;;;5098176;28;20466;-45
2023/12/27 10:29:08;;;;;;;3.07;2.70;;;15.10;1.00;;;;;;5095098;28;20202;-45
2023/12/27 10:31:34;;;;;;;5.33;2.90;;;15.10;1.00;;;;;;5093803;28;20509;-44
2023/12/27 10:34:02;;;;;;;2.97;2.50;;;15.10;1.00;;;;;;5096060;28;20588;-47
2023/12/27 10:36:30;;;;;;;2.40;2.10;;;15.10;1.00;;;;;;5097750;28;20215;-43
2023/12/27 10:38:56;;;;;;;3.93;2.40;;;16.00;1.00;;;;;;5096667;28;20528;-42
2023/12/27 10:41:22;;;;;;;4.17;2.27;;;16.20;1.00;;;;;;5096486;28;20447;-45
2023/12/27 10:43:50;;;;;;;3.03;2.33;;;16.10;1.00;;;;;;5096823;28;20422;-41
2023/12/27 10:46:16;;;;;;;2.60;2.03;;;16.50;1.00;;;;;;5098464;28;20436;-42
2023/12/27 10:48:44;;;;;;;2.80;2.50;;;16.20;1.00;;;;;;5097054;28;20477;-42
2023/12/27 10:51:09;;;;;;;2.53;2.13;;;16.20;1.00;;;;;;5096705;28;20587;-43
2023/12/27 10:53:35;;;;;;;2.60;2.23;;;15.80;1.00;;;;;;5097167;28;20509;-42
2023/12/27 10:56:03;;;;;;;2.87;2.10;;;15.90;1.00;;;;;;5096307;28;20168;-44
2023/12/27 10:58:31;;;;;;;3.40;2.20;;;16.60;1.00;;;;;;5097717;28;20180;-42
2023/12/27 11:00:58;;;;;;;3.70;2.23;;;17.20;1.00;;;;;;5098392;28;20441;-47
2023/12/27 11:03:23;;;;;;;3.20;2.33;;;17.60;1.00;;;;;;5098224;28;20515;-43
2023/12/27 11:05:50;;;;;;;2.80;2.33;;;17.80;1.00;;;;;;5098365;28;20460;-44
2023/12/27 11:08:17;;;;;;;3.60;2.70;;;17.50;1.00;;;;;;5095470;28;20780;-43
2023/12/27 11:10:44;;;;;;;4.77;2.20;;;17.80;1.00;;;;;;5095941;28;20448;-41
2023/12/27 11:13:12;;;;;;;3.73;2.20;;;17.80;1.00;;;;;;5095316;28;20426;-42
2023/12/27 11:15:40;;;;;;;4.63;2.43;;;17.80;1.00;;;;;;5096153;28;20434;-45
2023/12/27 11:18:08;;;;;;;4.03;2.53;;;18.50;1.00;;;;;;5095465;28;20522;-42
2023/12/27 11:20:34;;;;;;;3.03;2.53;;;19.50;1.00;;;;;;5096245;28;20430;-43
2023/12/27 11:23:00;;;;;;;2.90;2.10;;;19.60;1.00;;;;;;5094871;28;20418;-42
2023/12/27 11:25:25;;;;;;;2.50;2.30;;;19.00;1.00;;;;;;5096197;28;20445;-45
2023/12/27 11:27:52;;;;;;;2.33;1.93;;;19.10;1.00;;;;;;5095406;28;20223;-40
2023/12/27 11:30:19;;;;;;;3.17;2.10;;;19.40;1.00;;;;;;5097087;28;20542;-42
2023/12/27 11:32:46;;;;;;;2.60;2.20;;;19.00;1.00;;;;;;5095967;28;20508;-41
2023/12/27 11:35:45;;;;;;;2.23;1.97;;;18.10;1.00;;;;;;5096153;28;20445;-43
2023/12/27 11:38:21;;;;;;;3.27;2.40;;;18.00;1.00;;;;;;5052217;28;20430;-43
2023/12/27 11:40:47;;;;;;;3.80;2.53;;;18.10;1.00;;;;;;5094512;28;20867;-44
2023/12/27 11:43:23;;;;;;;3.90;2.20;;;18.10;1.00;;;;;;5094594;28;20457;-43
2023/12/27 11:45:56;;;;;;;3.73;2.47;;;17.90;1.00;;;;;;5094526;28;20426;-43
2023/12/27 11:48:21;;;;;;;4.40;2.70;;;17.10;1.00;;;;;;5096717;28;20458;-41
2023/12/27 11:50:47;;;;;;;2.23;2.03;;;16.90;1.00;;;;;;5096910;28;20477;-43
2023/12/27 11:53:14;;;;;;;3.20;1.90;;;16.50;1.00;;;;;;5096240;28;20234;-45
2023/12/27 11:55:41;;;;;;;3.10;2.63;;;16.30;1.00;;;;;;5098334;28;20271;-43
2023/12/27 11:58:08;;;;;;;3.60;2.23;;;16.20;1.00;;;;;;5095908;28;20426;-43
2023/12/27 12:00:35;;;;;;;2.90;2.30;;;16.80;1.00;;;;;;5097585;28;20434;-41
2023/12/27 12:03:02;;;;;;;5.17;2.70;;;17.10;1.00;;;;;;5095331;28;20713;-43
2023/12/27 12:05:42;;;;;;;4.57;2.27;;;17.30;1.00;;;;;;5095452;28;20518;-44
2023/12/27 12:08:23;;;;;;;2.30;1.97;;;16.60;1.00;;;;;;5095098;28;20473;-44
2023/12/27 12:11:07;;;;;;;2.70;2.20;;;15.70;1.00;;;;;;5094841;28;20501;-43
2023/12/27 12:13:33;;;;;;;4.03;2.43;;;15.30;1.00;;;;;;5094272;28;20427;-43
2023/12/27 12:15:59;;;;;;;3.53;2.30;;;15.10;1.00;;;;;;5095589;28;20426;-43
2023/12/27 12:18:26;;;;;;;2.93;2.03;;;14.80;1.00;;;;;;5096731;28;20442;-44
2023/12/27 12:20:52;;;;;;;3.40;2.27;;;14.80;1.00;;;;;;5097462;28;20560;-45
2023/12/27 12:23:18;;;;;;;2.87;2.27;;;14.40;1.00;;;;;;5095148;28;20415;-44
2023/12/27 12:25:44;;;;;;;2.70;2.50;;;14.60;1.00;;;;;;5093927;28;20689;-42
2023/12/27 12:28:10;;;;;;;3.93;2.77;;;14.70;1.00;;;;;;5094155;28;20269;-47
2023/12/27 12:30:36;;;;;;;2.67;2.23;;;15.10;1.00;;;;;;5093150;28;20430;-45
2023/12/27 12:33:04;;;;;;;3.07;2.20;;;15.30;1.00;;;;;;5091071;28;20608;-44
2023/12/27 12:35:29;;;;;;;2.70;2.03;;;15.20;1.00;;;;;;5090858;28;20407;-43
2023/12/27 12:38:00;;;;;;;3.17;2.30;;;14.80;1.00;;;;;;5092019;28;20587;-44
2023/12/27 12:40:26;;;;;;;3.50;2.30;;;15.00;1.00;;;;;;5092421;28;20191;-44
2023/12/27 12:42:52;;;;;;;2.97;2.60;;;15.20;1.00;;;;;;5093217;28;20817;-43
2023/12/27 12:45:18;;;;;;;4.00;2.27;;;15.20;1.00;;;;;;5092967;28;20328;-44
2023/12/27 12:47:43;;;;;;;2.83;2.43;;;15.30;1.00;;;;;;5094715;28;20501;-44
2023/12/27 12:50:09;;;;;;;5.03;2.57;;;15.10;1.00;;;;;;5094144;28;20328;-42
2023/12/27 12:52:36;;;;;;;3.20;2.00;;;15.00;1.00;;;;;;5096608;28;20566;-43
2023/12/27 12:55:02;;;;;;;3.93;2.03;;;15.30;1.00;;;;;;5096613;28;20193;-41